Latest Coastal Weather Observations for Edithburgh

IDS60701

Issued at 1:41 am CDT Monday 22 December 2014 (issued every 10 minutes, with the page automatically refreshed every 10 minutes)

About coastal observations | Map of coastal stations | Coastal observations for SA | Marine services | Other Formats
Station Details ID: 022046 Name: EDITHBURGH Lat: -35.11 Lon: 137.74 Height: 6.0 m
Data from the previous 72 hours. | See also: Recent months at Edithburgh
Date/Time
CDT
Temp

°C
Wind Pressure Rain
since 9am
mm
Weather Cloud Vis
km
Sea
Height
m
Swell
Dir
 
Speed
knots
Gust
knots
hPa Trend Height
m
Period
s
Dir
22/01:30am 18.1 SSE 17 23 1008.8 - 0.0 - - - - - - -
22/01:00am 18.0 SSE 17 23 1009.4 - 0.0 - - - - - - -
22/12:30am 18.1 SSE 18 23 1009.9 - 0.0 - - - - - - -
22/12:00am 18.2 SSE 20 27 1009.7 - 0.0 - - - - - - -
 
Date/Time
CDT
Temp

°C
Wind Pressure Rain
since 9am
mm
Weather Cloud Vis
km
Sea
Height
m
Swell
Dir
 
Speed
knots
Gust
knots
hPa Trend Height
m
Period
s
Dir
21/11:30pm 18.3 S 20 28 1010.0 - 0.0 - - - - - - -
21/11:00pm 18.2 SSE 17 25 1010.3 - 0.0 - - - - - - -
21/10:30pm 18.4 S 18 25 1011.0 - 0.0 - - - - - - -
21/10:00pm 18.6 SSE 19 24 1011.1 - 0.0 - - - - - - -
21/09:30pm 18.7 S 14 21 1011.5 - 0.0 - - - - - - -
21/09:00pm 19.0 S 17 23 1010.6 - 0.0 - - - - - - -
21/08:30pm 19.3 S 20 25 1009.9 - 0.0 - - - - - - -
21/08:00pm 19.9 S 15 19 1009.7 - 0.0 - - - - - - -
21/07:30pm 20.1 S 15 20 1008.7 - 0.0 - - - - - - -
21/07:00pm 20.7 S 14 19 1008.3 - 0.0 - - - - - - -
21/06:30pm 20.6 SSE 15 21 1008.3 - 0.0 - - - - - - -
21/06:00pm 20.3 SSE 17 23 1008.1 - 0.0 - - - - - - -
21/05:30pm 20.7 SSE 18 24 1008.4 - 0.0 - - - - - - -
21/05:00pm 21.2 SSE 18 24 1008.6 - 0.0 - - - - - - -
21/04:30pm 21.7 SSE 16 21 1009.2 - 0.0 - - - - - - -
21/04:00pm 21.5 SSE 15 21 1009.5 - 0.0 - - - - - - -
21/03:30pm 22.0 SSE 17 24 1009.9 - 0.0 - - - - - - -
21/03:00pm 22.7 SSE 15 20 1010.3 - 0.0 - - - - - - -
21/02:30pm 22.5 SSE 16 21 1010.8 - 0.0 - - - - - - -
21/02:00pm 23.3 SSE 15 21 1011.3 - 0.0 - - - - - - -
21/01:30pm 22.5 SSE 16 21 1011.6 - 0.0 - - - - - - -
21/01:00pm 22.6 SSE 14 18 1011.8 - 0.0 - - - - - - -
21/12:30pm 22.8 SSE 14 17 1011.9 - 0.0 - - - - - - -
21/12:00pm 22.4 SSE 13 17 1012.1 - 0.0 - - - - - - -
21/11:30am 24.7 SSE 14 18 1011.9 - 0.0 - - - - - - -
21/11:00am 24.9 ESE 6 14 1011.8 - 0.0 - - - - - - -
21/10:30am 24.3 NNE 6 8 1011.1 - 0.0 - - - - - - -
21/10:00am 24.7 NE 8 11 1010.8 - 0.0 - - - - - - -
21/09:30am 24.0 NNE 7 10 1011.0 - 0.0 - - - - - - -
21/09:00am 23.7 NE 7 11 1010.9 - 0.0 - - - - - - -
21/08:30am 23.2 NE 9 13 1010.8 - 0.0 - - - - - - -
21/08:00am 22.6 NE 8 11 1010.6 - 0.0 - - - - - - -
21/07:30am 22.1 ENE 7 10 1010.6 - 0.0 - - - - - - -
21/07:00am 20.9 ENE 4 5 1010.5 - 0.0 - - - - - - -
21/06:30am 18.7 ENE 4 5 1010.4 - 0.0 - - - - - - -
21/06:00am 17.8 E 5 6 1010.3 - 0.0 - - - - - - -
21/05:30am 18.1 E 6 7 1010.4 - 0.0 - - - - - - -
21/05:00am 18.3 E 6 7 1010.5 - 0.0 - - - - - - -
21/04:30am 18.7 E 7 8 1010.5 - 0.0 - - - - - - -
21/04:00am 19.1 E 9 11 1010.6 - 0.0 - - - - - - -
21/03:30am 19.1 ESE 9 12 1010.9 - 0.0 - - - - - - -
21/03:00am 18.6 SE 7 9 1011.3 - 0.0 - - - - - - -
21/02:30am 18.3 SE 6 8 1011.6 - 0.0 - - - - - - -
21/02:00am 17.2 SE 4 6 1012.0 - 0.0 - - - - - - -
21/01:30am 17.5 SE 4 5 1012.7 - 0.0 - - - - - - -
21/01:00am 18.3 SE 5 7 1012.5 - 0.0 - - - - - - -
21/12:30am 18.3 ESE 8 10 1012.5 - 0.0 - - - - - - -
21/12:00am 18.5 SE 9 11 1012.8 - 0.0 - - - - - - -
 
Date/Time
CDT
Temp

°C
Wind Pressure Rain
since 9am
mm
Weather Cloud Vis
km
Sea
Height
m
Swell
Dir
 
Speed
knots
Gust
knots
hPa Trend Height
m
Period
s
Dir
20/11:30pm 18.6 SE 11 14 1013.1 - 0.0 - - - - - - -
20/11:00pm 18.5 SE 12 15 1013.2 - 0.0 - - - - - - -
20/10:30pm 18.8 SE 13 17 1013.4 - 0.0 - - - - - - -
20/10:00pm 19.1 SE 11 13 1013.7 - 0.0 - - - - - - -
20/09:30pm 18.9 SSE 10 13 1013.8 - 0.0 - - - - - - -
20/09:00pm 18.9 SSE 11 15 1014.0 - 0.0 - - - - - - -
20/08:30pm 19.2 SSE 11 14 1014.2 - 0.0 - - - - - - -
20/08:00pm 19.6 SSE 11 16 1014.2 - 0.0 - - - - - - -
20/07:30pm 20.2 SSE 12 16 1014.0 - 0.0 - - - - - - -
20/07:00pm 20.7 SSE 12 15 1013.8 - 0.0 - - - - - - -
20/06:30pm 21.0 SSE 12 16 1013.6 - 0.0 - - - - - - -
20/06:00pm 20.9 SSE 13 17 1013.6 - 0.0 - - - - - - -
20/05:30pm 21.7 SSE 12 15 1014.0 - 0.0 - - - - - - -
20/05:00pm 21.4 SSE 11 13 1014.7 - 0.0 - - - - - - -
20/04:30pm 21.6 SSE 11 13 1014.8 - 0.0 - - - - - - -
20/04:00pm 21.1 SSE 10 13 1015.0 - 0.0 - - - - - - -
20/03:30pm 21.0 SSE 10 13 1015.3 - 0.0 - - - - - - -
20/03:00pm 21.0 SSE 10 12 1015.9 - 0.0 - - - - - - -
20/02:30pm 20.6 SSE 9 12 1016.4 - 0.0 - - - - - - -
20/02:00pm 20.2 SE 9 12 1017.1 - 0.0 - - - - - - -
20/01:30pm 19.9 SE 7 11 1017.7 - 0.0 - - - - - - -
20/01:00pm 19.8 SE 9 12 1017.9 - 0.0 - - - - - - -
20/12:30pm 20.1 SE 7 11 1018.3 - 0.0 - - - - - - -
20/12:00pm 20.4 SE 9 12 1018.5 - 0.0 - - - - - - -
20/11:30am 20.4 ESE 7 10 1018.9 - 0.0 - - - - - - -
20/11:00am 19.9 ESE 7 12 1018.9 - 0.0 - - - - - - -
20/10:30am 19.4 ESE 7 11 1019.0 - 0.0 - - - - - - -
20/10:00am 19.3 ESE 7 10 1019.3 - 0.0 - - - - - - -
20/09:30am 18.8 ESE 8 10 1019.4 - 0.0 - - - - - - -
20/09:00am 18.4 ESE 9 13 1019.7 - 0.0 - - - - - - -
20/08:30am 18.3 ESE 9 11 1019.6 - 0.0 - - - - - - -
20/08:00am 18.1 ESE 9 11 1019.0 - 0.0 - - - - - - -
20/07:30am 17.7 E 7 8 1019.1 - 0.0 - - - - - - -
20/07:00am 16.9 E 5 8 1019.0 - 0.0 - - - - - - -
20/06:30am 15.6 ESE 5 7 1018.9 - 0.0 - - - - - - -
20/06:00am 15.2 ESE 5 8 1018.8 - 0.0 - - - - - - -
20/05:30am 15.2 ESE 6 8 1018.6 - 0.0 - - - - - - -
20/05:00am 15.5 ESE 6 9 1018.2 - 0.0 - - - - - - -
20/04:30am 15.5 ESE 6 9 1018.2 - 0.0 - - - - - - -
20/04:00am 15.4 ESE 6 7 1018.0 - 0.0 - - - - - - -
20/03:30am 15.9 SE 8 11 1018.2 - 0.0 - - - - - - -
20/03:00am 16.0 SE 9 12 1018.4 - 0.0 - - - - - - -
20/02:30am 16.1 SE 9 12 1018.6 - 0.0 - - - - - - -
20/02:00am 16.2 SE 10 13 1019.0 - 0.0 - - - - - - -
20/01:30am 16.2 SE 11 14 1019.5 - 0.0 - - - - - - -
20/01:00am 16.3 SSE 11 13 1019.9 - 0.0 - - - - - - -
20/12:30am 16.3 SSE 11 13 1020.3 - 0.0 - - - - - - -
20/12:00am 16.3 SSE 12 15 1020.3 - 0.0 - - - - - - -
 
Date/Time
CDT
Temp

°C
Wind Pressure Rain
since 9am
mm
Weather Cloud Vis
km
Sea
Height
m
Swell
Dir
 
Speed
knots
Gust
knots
hPa Trend Height
m
Period
s
Dir
19/11:30pm 16.3 SSE 10 14 1020.7 - 0.0 - - - - - - -
19/11:00pm 16.6 SSE 11 15 1020.8 - 0.0 - - - - - - -
19/10:30pm 16.7 SSE 11 14 1021.0 - 0.0 - - - - - - -
19/10:00pm 16.8 SSE 10 14 1020.9 - 0.0 - - - - - - -
19/09:30pm 17.0 SSE 10 15 1020.8 - 0.0 - - - - - - -
19/09:00pm 17.5 SSE 8 12 1020.7 - 0.0 - - - - - - -
19/08:30pm 17.8 SSE 8 11 1020.6 - 0.0 - - - - - - -
19/08:00pm 18.0 S 6 9 1020.7 - 0.0 - - - - - - -
19/07:30pm 18.5 S 8 11 1020.6 - 0.0 - - - - - - -
19/07:00pm 19.1 S 8 13 1020.4 - 0.0 - - - - - - -
19/06:30pm 19.5 SSW 8 12 1020.4 - 0.0 - - - - - - -
19/06:00pm 19.6 S 8 12 1020.1 - 0.0 - - - - - - -
19/05:30pm 19.5 S 8 12 1020.1 - 0.0 - - - - - - -
19/05:00pm 19.5 S 9 13 1020.2 - 0.0 - - - - - - -
19/04:30pm 19.3 S 8 13 1020.4 - 0.0 - - - - - - -
19/04:00pm 19.8 S 8 12 1020.5 - 0.0 - - - - - - -
19/03:30pm 19.7 S 9 13 1020.6 - 0.0 - - - - - - -
19/03:00pm 20.5 S 9 13 1020.6 - 0.0 - - - - - - -
19/02:30pm 20.2 S 8 12 1020.8 - 0.0 - - - - - - -
19/02:00pm 19.9 S 8 12 1020.9 - 0.0 - - - - - - -
19/01:30pm 20.4 SSE 10 13 1020.9 - 0.0 - - - - - - -
19/01:00pm 19.5 SSE 9 13 1021.0 - 0.0 - - - - - - -
19/12:30pm 20.3 S 9 12 1021.3 - 0.0 - - - - - - -
19/12:00pm 19.3 S 9 14 1021.4 - 0.0 - - - - - - -
19/11:30am 19.1 SSW 9 12 1021.4 - 0.0 - - - - - - -
19/11:00am 19.1 S 8 11 1021.3 - 0.0 - - - - - - -
19/10:30am 18.8 S 7 10 1021.3 - 0.0 - - - - - - -
19/10:00am 17.9 S 6 10 1021.2 - 0.0 - - - - - - -
19/09:30am 18.1 SSE 6 10 1021.0 - 0.0 - - - - - - -
19/09:00am 17.9 SSE 7 10 1020.6 - 0.0 - - - - - - -
19/08:30am 17.9 S 7 11 1020.2 - 0.0 - - - - - - -
19/08:00am 17.5 SSW 7 9 1019.8 - 0.0 - - - - - - -
19/07:30am 16.7 SSW 6 9 1019.5 - 0.0 - - - - - - -
19/07:00am 16.0 S 6 9 1018.9 - 0.0 - - - - - - -
19/06:30am 14.7 S 6 8 1018.6 - 0.0 - - - - - - -
19/06:00am 14.7 S 7 9 1018.3 - 0.0 - - - - - - -
19/05:30am 14.4 SSW 7 9 1018.4 - 0.0 - - - - - - -
19/05:00am 14.2 SSW 7 9 1018.2 - 0.0 - - - - - - -
19/04:30am 14.6 SSW 7 10 1018.0 - 0.0 - - - - - - -
19/04:00am 14.7 SSW 8 11 1018.1 - 0.0 - - - - - - -
19/03:30am 14.7 SSW 7 10 1018.0 - 0.0 - - - - - - -
19/03:00am 14.7 SSW 8 11 1018.0 - 0.0 - - - - - - -
19/02:30am 15.0 SSW 9 11 1018.1 - 0.0 - - - - - - -
19/02:00am 14.9 SSW 7 11 1018.2 - 0.0 - - - - - - -

Other Formats:

Comma delimited format used in spreadsheet applications
http://www.bom.gov.au/fwo/IDS60701/IDS60701.94809.axf

JavaScript Object Notation format (JSON) in row-major order
http://www.bom.gov.au/fwo/IDS60701/IDS60701.94809.json